sensor_id;sensor_type;location;lat;lon;timestamp;temperature;humidity
20492;DHT22;10404;51.468;6.762;2024-01-10T00:01:32;-5.40;60.10
20492;DHT22;10404;51.468;6.762;2024-01-10T00:03:57;-5.40;60.00
20492;DHT22;10404;51.468;6.762;2024-01-10T00:06:24;-5.40;60.00
20492;DHT22;10404;51.468;6.762;2024-01-10T00:08:50;-5.40;59.80
20492;DHT22;10404;51.468;6.762;2024-01-10T00:11:16;-5.40;59.90
20492;DHT22;10404;51.468;6.762;2024-01-10T00:13:41;-5.40;59.80
20492;DHT22;10404;51.468;6.762;2024-01-10T00:16:07;-5.40;59.70
20492;DHT22;10404;51.468;6.762;2024-01-10T00:18:33;-5.40;59.60
20492;DHT22;10404;51.468;6.762;2024-01-10T00:20:59;-5.50;59.50
20492;DHT22;10404;51.468;6.762;2024-01-10T00:23:25;-5.50;59.30
20492;DHT22;10404;51.468;6.762;2024-01-10T00:25:50;-5.40;59.10
20492;DHT22;10404;51.468;6.762;2024-01-10T00:28:16;-5.40;59.00
20492;DHT22;10404;51.468;6.762;2024-01-10T00:30:45;-5.50;59.00
20492;DHT22;10404;51.468;6.762;2024-01-10T00:33:12;-5.40;58.90
20492;DHT22;10404;51.468;6.762;2024-01-10T00:35:38;-5.40;58.70
20492;DHT22;10404;51.468;6.762;2024-01-10T00:38:04;-5.50;58.70
20492;DHT22;10404;51.468;6.762;2024-01-10T00:40:29;-5.50;58.60
20492;DHT22;10404;51.468;6.762;2024-01-10T00:42:55;-5.50;58.50
20492;DHT22;10404;51.468;6.762;2024-01-10T00:45:20;-5.40;58.40
20492;DHT22;10404;51.468;6.762;2024-01-10T00:47:48;-5.50;58.40
20492;DHT22;10404;51.468;6.762;2024-01-10T00:50:13;-5.40;58.30
20492;DHT22;10404;51.468;6.762;2024-01-10T00:52:39;-5.50;58.30
20492;DHT22;10404;51.468;6.762;2024-01-10T00:55:05;-5.50;58.30
20492;DHT22;10404;51.468;6.762;2024-01-10T00:57:30;-5.50;58.20
20492;DHT22;10404;51.468;6.762;2024-01-10T00:59:56;-5.60;58.20
20492;DHT22;10404;51.468;6.762;2024-01-10T01:02:21;-5.60;58.40
20492;DHT22;10404;51.468;6.762;2024-01-10T01:04:47;-5.60;58.40
20492;DHT22;10404;51.468;6.762;2024-01-10T01:07:12;-5.60;58.50
20492;DHT22;10404;51.468;6.762;2024-01-10T01:09:38;-5.60;58.50
20492;DHT22;10404;51.468;6.762;2024-01-10T01:12:04;-5.60;58.60
20492;DHT22;10404;51.468;6.762;2024-01-10T01:14:30;-5.60;58.70
20492;DHT22;10404;51.468;6.762;2024-01-10T01:16:56;-5.60;58.70
20492;DHT22;10404;51.468;6.762;2024-01-10T01:19:21;-5.60;58.80
20492;DHT22;10404;51.468;6.762;2024-01-10T01:21:47;-5.60;58.70
20492;DHT22;10404;51.468;6.762;2024-01-10T01:24:13;-5.60;58.60
20492;DHT22;10404;51.468;6.762;2024-01-10T01:26:38;-5.60;58.40
20492;DHT22;10404;51.468;6.762;2024-01-10T01:29:04;-5.60;58.40
20492;DHT22;10404;51.468;6.762;2024-01-10T01:31:30;-5.60;58.50
20492;DHT22;10404;51.468;6.762;2024-01-10T01:33:55;-5.60;58.50
20492;DHT22;10404;51.468;6.762;2024-01-10T01:36:21;-5.60;58.50
20492;DHT22;10404;51.468;6.762;2024-01-10T01:38:46;-5.60;58.60
20492;DHT22;10404;51.468;6.762;2024-01-10T01:41:12;-5.60;58.70
20492;DHT22;10404;51.468;6.762;2024-01-10T01:43:39;-5.60;58.70
20492;DHT22;10404;51.468;6.762;2024-01-10T01:46:05;-5.60;58.70
20492;DHT22;10404;51.468;6.762;2024-01-10T01:48:31;-5.60;58.50
20492;DHT22;10404;51.468;6.762;2024-01-10T01:51:01;-5.60;58.50
20492;DHT22;10404;51.468;6.762;2024-01-10T01:53:27;-5.60;58.50
20492;DHT22;10404;51.468;6.762;2024-01-10T01:55:54;-5.60;58.60
20492;DHT22;10404;51.468;6.762;2024-01-10T01:58:21;-5.60;58.60
20492;DHT22;10404;51.468;6.762;2024-01-10T02:00:47;-5.60;58.50
20492;DHT22;10404;51.468;6.762;2024-01-10T02:03:13;-5.60;58.50
20492;DHT22;10404;51.468;6.762;2024-01-10T02:05:39;-5.60;58.60
20492;DHT22;10404;51.468;6.762;2024-01-10T02:08:04;-5.70;58.50
20492;DHT22;10404;51.468;6.762;2024-01-10T02:10:30;-5.70;58.70
20492;DHT22;10404;51.468;6.762;2024-01-10T02:12:56;-5.70;58.70
20492;DHT22;10404;51.468;6.762;2024-01-10T02:15:22;-5.70;58.80
20492;DHT22;10404;51.468;6.762;2024-01-10T02:17:47;-5.70;58.90
20492;DHT22;10404;51.468;6.762;2024-01-10T02:20:15;-5.70;59.00
20492;DHT22;10404;51.468;6.762;2024-01-10T02:22:42;-5.70;59.10
20492;DHT22;10404;51.468;6.762;2024-01-10T02:25:09;-5.70;59.00
20492;DHT22;10404;51.468;6.762;2024-01-10T02:27:36;-5.70;59.10
20492;DHT22;10404;51.468;6.762;2024-01-10T02:30:02;-5.80;59.20
20492;DHT22;10404;51.468;6.762;2024-01-10T02:32:28;-5.80;59.40
20492;DHT22;10404;51.468;6.762;2024-01-10T02:34:54;-5.80;59.40
20492;DHT22;10404;51.468;6.762;2024-01-10T02:37:20;-5.80;59.60
20492;DHT22;10404;51.468;6.762;2024-01-10T02:39:45;-5.80;59.50
20492;DHT22;10404;51.468;6.762;2024-01-10T02:42:11;-5.80;59.60
20492;DHT22;10404;51.468;6.762;2024-01-10T02:44:37;-5.80;59.70
20492;DHT22;10404;51.468;6.762;2024-01-10T02:47:03;-5.90;59.70
20492;DHT22;10404;51.468;6.762;2024-01-10T02:49:28;-5.90;59.90
20492;DHT22;10404;51.468;6.762;2024-01-10T02:51:54;-5.90;60.00
20492;DHT22;10404;51.468;6.762;2024-01-10T02:54:19;-5.90;60.00
20492;DHT22;10404;51.468;6.762;2024-01-10T02:56:45;-6.00;60.00
20492;DHT22;10404;51.468;6.762;2024-01-10T02:59:11;-5.90;60.10
20492;DHT22;10404;51.468;6.762;2024-01-10T03:01:37;-5.90;60.00
20492;DHT22;10404;51.468;6.762;2024-01-10T03:04:02;-5.90;60.00
20492;DHT22;10404;51.468;6.762;2024-01-10T03:06:28;-5.90;60.00
20492;DHT22;10404;51.468;6.762;2024-01-10T03:08:55;-6.00;60.10
20492;DHT22;10404;51.468;6.762;2024-01-10T03:11:21;-6.00;60.20
20492;DHT22;10404;51.468;6.762;2024-01-10T03:13:47;-6.00;60.30
20492;DHT22;10404;51.468;6.762;2024-01-10T03:16:13;-6.00;60.40
20492;DHT22;10404;51.468;6.762;2024-01-10T03:18:39;-6.00;60.50
20492;DHT22;10404;51.468;6.762;2024-01-10T03:21:05;-6.00;60.30
20492;DHT22;10404;51.468;6.762;2024-01-10T03:23:30;-6.00;60.50
20492;DHT22;10404;51.468;6.762;2024-01-10T03:25:56;-6.00;60.50
20492;DHT22;10404;51.468;6.762;2024-01-10T03:28:22;-6.00;60.40
20492;DHT22;10404;51.468;6.762;2024-01-10T03:30:48;-6.00;60.30
20492;DHT22;10404;51.468;6.762;2024-01-10T03:33:14;-6.00;60.40
20492;DHT22;10404;51.468;6.762;2024-01-10T03:35:41;-6.10;60.50
20492;DHT22;10404;51.468;6.762;2024-01-10T03:38:07;-6.10;60.50
20492;DHT22;10404;51.468;6.762;2024-01-10T03:40:32;-6.10;60.50
20492;DHT22;10404;51.468;6.762;2024-01-10T03:42:58;-6.00;60.50
20492;DHT22;10404;51.468;6.762;2024-01-10T03:45:24;-6.10;60.50
20492;DHT22;10404;51.468;6.762;2024-01-10T03:47:49;-6.10;60.60
20492;DHT22;10404;51.468;6.762;2024-01-10T03:50:19;-6.10;60.60
20492;DHT22;10404;51.468;6.762;2024-01-10T03:52:46;-6.10;60.50
20492;DHT22;10404;51.468;6.762;2024-01-10T03:55:12;-6.10;60.60
20492;DHT22;10404;51.468;6.762;2024-01-10T03:57:42;-6.10;60.60
20492;DHT22;10404;51.468;6.762;2024-01-10T04:00:08;-6.10;60.70
20492;DHT22;10404;51.468;6.762;2024-01-10T04:02:36;-6.20;60.80
20492;DHT22;10404;51.468;6.762;2024-01-10T04:05:02;-6.20;60.90
20492;DHT22;10404;51.468;6.762;2024-01-10T04:07:27;-6.20;61.00
20492;DHT22;10404;51.468;6.762;2024-01-10T04:09:53;-6.20;61.10
20492;DHT22;10404;51.468;6.762;2024-01-10T04:12:19;-6.30;61.20
20492;DHT22;10404;51.468;6.762;2024-01-10T04:14:44;-6.30;61.20
20492;DHT22;10404;51.468;6.762;2024-01-10T04:17:10;-6.30;61.40
20492;DHT22;10404;51.468;6.762;2024-01-10T04:19:36;-6.30;61.40
20492;DHT22;10404;51.468;6.762;2024-01-10T04:22:01;-6.30;61.50
20492;DHT22;10404;51.468;6.762;2024-01-10T04:24:27;-6.30;61.50
20492;DHT22;10404;51.468;6.762;2024-01-10T04:26:53;-6.40;61.50
20492;DHT22;10404;51.468;6.762;2024-01-10T04:29:18;-6.30;61.50
20492;DHT22;10404;51.468;6.762;2024-01-10T04:31:44;-6.30;61.50
20492;DHT22;10404;51.468;6.762;2024-01-10T04:34:09;-6.40;61.60
20492;DHT22;10404;51.468;6.762;2024-01-10T04:36:35;-6.30;61.60
20492;DHT22;10404;51.468;6.762;2024-01-10T04:39:00;-6.30;61.40
20492;DHT22;10404;51.468;6.762;2024-01-10T04:41:26;-6.30;61.50
20492;DHT22;10404;51.468;6.762;2024-01-10T04:43:52;-6.40;61.60
20492;DHT22;10404;51.468;6.762;2024-01-10T04:46:17;-6.40;61.60
20492;DHT22;10404;51.468;6.762;2024-01-10T04:48:43;-6.40;61.60
20492;DHT22;10404;51.468;6.762;2024-01-10T04:51:09;-6.40;61.70
20492;DHT22;10404;51.468;6.762;2024-01-10T04:53:34;-6.40;61.80
20492;DHT22;10404;51.468;6.762;2024-01-10T04:56:00;-6.40;61.70
20492;DHT22;10404;51.468;6.762;2024-01-10T04:58:26;-6.40;61.70
20492;DHT22;10404;51.468;6.762;2024-01-10T05:00:52;-6.50;61.80
20492;DHT22;10404;51.468;6.762;2024-01-10T05:03:17;-6.50;62.00
20492;DHT22;10404;51.468;6.762;2024-01-10T05:05:43;-6.50;62.00
20492;DHT22;10404;51.468;6.762;2024-01-10T05:08:08;-6.50;61.90
20492;DHT22;10404;51.468;6.762;2024-01-10T05:10:34;-6.50;62.00
20492;DHT22;10404;51.468;6.762;2024-01-10T05:12:59;-6.50;61.90
20492;DHT22;10404;51.468;6.762;2024-01-10T05:15:25;-6.50;61.90
20492;DHT22;10404;51.468;6.762;2024-01-10T05:17:50;-6.50;62.00
20492;DHT22;10404;51.468;6.762;2024-01-10T05:20:16;-6.50;62.10
20492;DHT22;10404;51.468;6.762;2024-01-10T05:22:42;-6.60;62.10
20492;DHT22;10404;51.468;6.762;2024-01-10T05:25:08;-6.60;62.10
20492;DHT22;10404;51.468;6.762;2024-01-10T05:27:33;-6.60;62.20
20492;DHT22;10404;51.468;6.762;2024-01-10T05:29:59;-6.60;62.20
20492;DHT22;10404;51.468;6.762;2024-01-10T05:32:27;-6.60;62.40
20492;DHT22;10404;51.468;6.762;2024-01-10T05:34:56;-6.60;62.30
20492;DHT22;10404;51.468;6.762;2024-01-10T05:37:21;-6.70;62.50
20492;DHT22;10404;51.468;6.762;2024-01-10T05:39:47;-6.60;62.50
20492;DHT22;10404;51.468;6.762;2024-01-10T05:42:14;-6.70;62.50
20492;DHT22;10404;51.468;6.762;2024-01-10T05:44:39;-6.70;62.50
20492;DHT22;10404;51.468;6.762;2024-01-10T05:47:05;-6.70;62.50
20492;DHT22;10404;51.468;6.762;2024-01-10T05:49:31;-6.70;62.60
20492;DHT22;10404;51.468;6.762;2024-01-10T05:51:58;-6.70;62.50
20492;DHT22;10404;51.468;6.762;2024-01-10T05:54:23;-6.70;62.40
20492;DHT22;10404;51.468;6.762;2024-01-10T05:56:49;-6.60;62.40
20492;DHT22;10404;51.468;6.762;2024-01-10T05:59:15;-6.60;62.20
20492;DHT22;10404;51.468;6.762;2024-01-10T06:01:42;-6.60;62.20
20492;DHT22;10404;51.468;6.762;2024-01-10T06:04:07;-6.70;62.20
20492;DHT22;10404;51.468;6.762;2024-01-10T06:06:33;-6.60;62.20
20492;DHT22;10404;51.468;6.762;2024-01-10T06:09:00;-6.70;62.20
20492;DHT22;10404;51.468;6.762;2024-01-10T06:11:25;-6.70;62.30
20492;DHT22;10404;51.468;6.762;2024-01-10T06:13:51;-6.70;62.30
20492;DHT22;10404;51.468;6.762;2024-01-10T06:16:17;-6.70;62.40
20492;DHT22;10404;51.468;6.762;2024-01-10T06:18:42;-6.70;62.40
20492;DHT22;10404;51.468;6.762;2024-01-10T06:21:08;-6.70;62.40
20492;DHT22;10404;51.468;6.762;2024-01-10T06:23:34;-6.70;62.50
20492;DHT22;10404;51.468;6.762;2024-01-10T06:26:00;-6.80;62.50
20492;DHT22;10404;51.468;6.762;2024-01-10T06:28:25;-6.70;62.50
20492;DHT22;10404;51.468;6.762;2024-01-10T06:30:51;-6.70;62.50
20492;DHT22;10404;51.468;6.762;2024-01-10T06:33:17;-6.70;62.40
20492;DHT22;10404;51.468;6.762;2024-01-10T06:35:45;-6.80;62.50
20492;DHT22;10404;51.468;6.762;2024-01-10T06:38:11;-6.80;62.50
20492;DHT22;10404;51.468;6.762;2024-01-10T06:40:36;-6.80;62.60
20492;DHT22;10404;51.468;6.762;2024-01-10T06:43:03;-6.80;62.60
20492;DHT22;10404;51.468;6.762;2024-01-10T06:45:29;-6.80;62.60
20492;DHT22;10404;51.468;6.762;2024-01-10T06:47:54;-6.80;62.70
20492;DHT22;10404;51.468;6.762;2024-01-10T06:50:20;-6.80;62.70
20492;DHT22;10404;51.468;6.762;2024-01-10T06:52:47;-6.80;62.60
20492;DHT22;10404;51.468;6.762;2024-01-10T06:55:12;-6.80;62.60
20492;DHT22;10404;51.468;6.762;2024-01-10T06:57:38;-6.80;62.50
20492;DHT22;10404;51.468;6.762;2024-01-10T07:00:04;-6.80;62.50
20492;DHT22;10404;51.468;6.762;2024-01-10T07:02:32;-6.80;62.50
20492;DHT22;10404;51.468;6.762;2024-01-10T07:04:59;-6.80;62.60
20492;DHT22;10404;51.468;6.762;2024-01-10T07:07:25;-6.80;62.70
20492;DHT22;10404;51.468;6.762;2024-01-10T07:09:50;-6.80;62.70
20492;DHT22;10404;51.468;6.762;2024-01-10T07:12:16;-6.80;62.70
20492;DHT22;10404;51.468;6.762;2024-01-10T07:14:41;-6.90;62.70
20492;DHT22;10404;51.468;6.762;2024-01-10T07:17:07;-6.90;62.80
20492;DHT22;10404;51.468;6.762;2024-01-10T07:19:33;-6.90;62.90
20492;DHT22;10404;51.468;6.762;2024-01-10T07:21:58;-6.90;62.90
20492;DHT22;10404;51.468;6.762;2024-01-10T07:24:24;-6.80;62.80
20492;DHT22;10404;51.468;6.762;2024-01-10T07:26:49;-6.90;62.70
20492;DHT22;10404;51.468;6.762;2024-01-10T07:29:15;-6.90;62.60
20492;DHT22;10404;51.468;6.762;2024-01-10T07:31:40;-6.90;62.50
20492;DHT22;10404;51.468;6.762;2024-01-10T07:34:06;-6.90;62.50
20492;DHT22;10404;51.468;6.762;2024-01-10T07:36:32;-6.90;62.60
20492;DHT22;10404;51.468;6.762;2024-01-10T07:39:01;-6.90;62.70
20492;DHT22;10404;51.468;6.762;2024-01-10T07:41:27;-6.90;62.70
20492;DHT22;10404;51.468;6.762;2024-01-10T07:43:52;-6.90;62.80
20492;DHT22;10404;51.468;6.762;2024-01-10T07:46:18;-6.90;62.80
20492;DHT22;10404;51.468;6.762;2024-01-10T07:48:43;-6.90;62.70
20492;DHT22;10404;51.468;6.762;2024-01-10T07:51:09;-6.90;62.90
20492;DHT22;10404;51.468;6.762;2024-01-10T07:53:35;-6.90;62.90
20492;DHT22;10404;51.468;6.762;2024-01-10T07:56:01;-6.90;62.90
20492;DHT22;10404;51.468;6.762;2024-01-10T07:58:27;-6.90;62.80
20492;DHT22;10404;51.468;6.762;2024-01-10T08:00:53;-6.90;62.80
20492;DHT22;10404;51.468;6.762;2024-01-10T08:03:19;-6.90;62.80
20492;DHT22;10404;51.468;6.762;2024-01-10T08:05:45;-6.90;62.90
20492;DHT22;10404;51.468;6.762;2024-01-10T08:08:11;-6.90;62.70
20492;DHT22;10404;51.468;6.762;2024-01-10T08:10:38;-6.90;62.80
20492;DHT22;10404;51.468;6.762;2024-01-10T08:13:05;-6.90;62.80
20492;DHT22;10404;51.468;6.762;2024-01-10T08:15:30;-6.90;62.80
20492;DHT22;10404;51.468;6.762;2024-01-10T08:18:00;-6.90;62.80
20492;DHT22;10404;51.468;6.762;2024-01-10T08:20:28;-6.90;62.90
20492;DHT22;10404;51.468;6.762;2024-01-10T08:22:54;-6.90;62.90
20492;DHT22;10404;51.468;6.762;2024-01-10T08:25:19;-6.90;62.90
20492;DHT22;10404;51.468;6.762;2024-01-10T08:27:45;-6.90;62.90
20492;DHT22;10404;51.468;6.762;2024-01-10T08:30:11;-6.90;62.90
20492;DHT22;10404;51.468;6.762;2024-01-10T08:32:36;-6.90;62.90
20492;DHT22;10404;51.468;6.762;2024-01-10T08:35:03;-6.90;62.90
20492;DHT22;10404;51.468;6.762;2024-01-10T08:37:34;-6.90;62.90
20492;DHT22;10404;51.468;6.762;2024-01-10T08:39:59;-6.90;62.90
20492;DHT22;10404;51.468;6.762;2024-01-10T08:42:32;-6.90;63.00
20492;DHT22;10404;51.468;6.762;2024-01-10T08:44:58;-6.90;63.00
20492;DHT22;10404;51.468;6.762;2024-01-10T08:47:23;-7.00;63.10
20492;DHT22;10404;51.468;6.762;2024-01-10T08:49:50;-7.00;63.20
20492;DHT22;10404;51.468;6.762;2024-01-10T08:52:16;-7.00;63.30
20492;DHT22;10404;51.468;6.762;2024-01-10T08:54:41;-7.00;63.50
20492;DHT22;10404;51.468;6.762;2024-01-10T08:57:07;-7.00;63.40
20492;DHT22;10404;51.468;6.762;2024-01-10T08:59:33;-7.00;63.30
20492;DHT22;10404;51.468;6.762;2024-01-10T09:01:58;-7.00;63.60
20492;DHT22;10404;51.468;6.762;2024-01-10T09:04:24;-7.00;63.40
20492;DHT22;10404;51.468;6.762;2024-01-10T09:06:51;-7.00;63.60
20492;DHT22;10404;51.468;6.762;2024-01-10T09:09:16;-7.00;63.90
20492;DHT22;10404;51.468;6.762;2024-01-10T09:11:46;-7.10;63.90
20492;DHT22;10404;51.468;6.762;2024-01-10T09:14:13;-7.10;63.80
20492;DHT22;10404;51.468;6.762;2024-01-10T09:16:39;-7.10;64.00
20492;DHT22;10404;51.468;6.762;2024-01-10T09:19:04;-7.10;64.00
20492;DHT22;10404;51.468;6.762;2024-01-10T09:21:30;-7.10;64.00
20492;DHT22;10404;51.468;6.762;2024-01-10T09:23:55;-7.10;64.20
20492;DHT22;10404;51.468;6.762;2024-01-10T09:26:22;-7.10;64.10
20492;DHT22;10404;51.468;6.762;2024-01-10T09:28:48;-7.10;64.10
20492;DHT22;10404;51.468;6.762;2024-01-10T09:31:13;-7.10;64.00
20492;DHT22;10404;51.468;6.762;2024-01-10T09:33:40;-7.10;64.20
20492;DHT22;10404;51.468;6.762;2024-01-10T09:36:06;-7.10;64.20
20492;DHT22;10404;51.468;6.762;2024-01-10T09:38:38;-7.10;64.30
20492;DHT22;10404;51.468;6.762;2024-01-10T09:41:04;-7.10;64.30
20492;DHT22;10404;51.468;6.762;2024-01-10T09:43:30;-7.10;64.30
20492;DHT22;10404;51.468;6.762;2024-01-10T09:45:58;-7.10;64.50
20492;DHT22;10404;51.468;6.762;2024-01-10T09:48:25;-7.00;64.30
20492;DHT22;10404;51.468;6.762;2024-01-10T09:50:51;-7.00;64.10
20492;DHT22;10404;51.468;6.762;2024-01-10T09:53:25;-6.90;64.00
20492;DHT22;10404;51.468;6.762;2024-01-10T09:55:52;-6.90;64.00
20492;DHT22;10404;51.468;6.762;2024-01-10T09:58:25;-6.90;64.10
20492;DHT22;10404;51.468;6.762;2024-01-10T10:00:51;-6.90;64.20
20492;DHT22;10404;51.468;6.762;2024-01-10T10:03:18;-6.90;64.10
20492;DHT22;10404;51.468;6.762;2024-01-10T10:05:44;-6.90;64.30
20492;DHT22;10404;51.468;6.762;2024-01-10T10:08:12;-6.90;64.30
20492;DHT22;10404;51.468;6.762;2024-01-10T10:10:39;-6.90;64.30
20492;DHT22;10404;51.468;6.762;2024-01-10T10:13:09;-6.80;64.20
20492;DHT22;10404;51.468;6.762;2024-01-10T10:15:36;-6.80;64.00
20492;DHT22;10404;51.468;6.762;2024-01-10T10:18:02;-6.80;64.00
20492;DHT22;10404;51.468;6.762;2024-01-10T10:20:29;-6.70;64.00
20492;DHT22;10404;51.468;6.762;2024-01-10T10:23:05;-6.70;64.00
20492;DHT22;10404;51.468;6.762;2024-01-10T10:25:36;-6.80;64.30
20492;DHT22;10404;51.468;6.762;2024-01-10T10:28:03;-6.70;64.30
20492;DHT22;10404;51.468;6.762;2024-01-10T10:30:31;-6.70;64.00
20492;DHT22;10404;51.468;6.762;2024-01-10T10:32:57;-6.60;63.80
20492;DHT22;10404;51.468;6.762;2024-01-10T10:35:23;-6.60;63.80
20492;DHT22;10404;51.468;6.762;2024-01-10T10:37:50;-6.60;64.00
20492;DHT22;10404;51.468;6.762;2024-01-10T10:40:16;-6.50;63.90
20492;DHT22;10404;51.468;6.762;2024-01-10T10:42:56;-6.50;64.00
20492;DHT22;10404;51.468;6.762;2024-01-10T10:45:22;-6.50;63.80
20492;DHT22;10404;51.468;6.762;2024-01-10T10:47:58;-6.40;63.80
20492;DHT22;10404;51.468;6.762;2024-01-10T10:50:28;-6.40;63.70
20492;DHT22;10404;51.468;6.762;2024-01-10T10:52:55;-6.40;63.50
20492;DHT22;10404;51.468;6.762;2024-01-10T10:55:22;-6.30;63.60
20492;DHT22;10404;51.468;6.762;2024-01-10T10:57:49;-6.30;63.30
20492;DHT22;10404;51.468;6.762;2024-01-10T11:00:20;-6.20;63.00
20492;DHT22;10404;51.468;6.762;2024-01-10T11:02:47;-6.20;63.00
20492;DHT22;10404;51.468;6.762;2024-01-10T11:05:13;-6.20;63.30
20492;DHT22;10404;51.468;6.762;2024-01-10T11:07:43;-6.20;63.30
20492;DHT22;10404;51.468;6.762;2024-01-10T11:10:21;-6.20;63.40
20492;DHT22;10404;51.468;6.762;2024-01-10T11:21:30;-6.10;63.50
20492;DHT22;10404;51.468;6.762;2024-01-10T11:24:00;-6.10;63.60
20492;DHT22;10404;51.468;6.762;2024-01-10T11:26:26;-6.00;63.30
20492;DHT22;10404;51.468;6.762;2024-01-10T11:28:52;-6.00;63.30
20492;DHT22;10404;51.468;6.762;2024-01-10T11:31:30;-6.00;63.20
20492;DHT22;10404;51.468;6.762;2024-01-10T11:33:57;-5.90;63.10
20492;DHT22;10404;51.468;6.762;2024-01-10T11:36:23;-5.90;63.00
20492;DHT22;10404;51.468;6.762;2024-01-10T11:41:31;-5.80;63.00
20492;DHT22;10404;51.468;6.762;2024-01-10T11:46:47;-5.80;62.80
20492;DHT22;10404;51.468;6.762;2024-01-10T11:49:14;-5.80;63.20
20492;DHT22;10404;51.468;6.762;2024-01-10T11:51:54;-5.80;63.10
20492;DHT22;10404;51.468;6.762;2024-01-10T11:54:43;-5.70;63.10
20492;DHT22;10404;51.468;6.762;2024-01-10T11:57:13;-5.70;63.50
20492;DHT22;10404;51.468;6.762;2024-01-10T11:59:43;-5.70;63.60
20492;DHT22;10404;51.468;6.762;2024-01-10T12:02:11;-5.70;63.40
20492;DHT22;10404;51.468;6.762;2024-01-10T12:04:37;-5.70;63.40
20492;DHT22;10404;51.468;6.762;2024-01-10T12:07:04;-5.70;63.20
20492;DHT22;10404;51.468;6.762;2024-01-10T12:09:31;-5.60;62.70
20492;DHT22;10404;51.468;6.762;2024-01-10T12:11:57;-5.60;62.90
20492;DHT22;10404;51.468;6.762;2024-01-10T12:14:23;-5.50;63.00
20492;DHT22;10404;51.468;6.762;2024-01-10T12:16:51;-5.50;62.90
20492;DHT22;10404;51.468;6.762;2024-01-10T12:19:17;-5.50;63.00
20492;DHT22;10404;51.468;6.762;2024-01-10T12:21:43;-5.40;62.90
20492;DHT22;10404;51.468;6.762;2024-01-10T12:24:08;-5.40;62.80
20492;DHT22;10404;51.468;6.762;2024-01-10T12:26:34;-5.40;62.50
20492;DHT22;10404;51.468;6.762;2024-01-10T12:29:01;-5.20;62.20
20492;DHT22;10404;51.468;6.762;2024-01-10T12:31:28;-5.20;62.00
20492;DHT22;10404;51.468;6.762;2024-01-10T12:33:58;-5.20;61.60
20492;DHT22;10404;51.468;6.762;2024-01-10T12:36:24;-5.10;61.90
20492;DHT22;10404;51.468;6.762;2024-01-10T12:38:51;-5.10;62.10
20492;DHT22;10404;51.468;6.762;2024-01-10T12:41:18;-5.20;62.70
20492;DHT22;10404;51.468;6.762;2024-01-10T12:43:48;-5.20;62.40
20492;DHT22;10404;51.468;6.762;2024-01-10T12:46:14;-5.10;62.20
20492;DHT22;10404;51.468;6.762;2024-01-10T12:48:41;-5.00;62.00
20492;DHT22;10404;51.468;6.762;2024-01-10T12:51:11;-5.00;62.20
20492;DHT22;10404;51.468;6.762;2024-01-10T12:53:38;-5.00;62.30
20492;DHT22;10404;51.468;6.762;2024-01-10T12:56:05;-4.90;61.90
20492;DHT22;10404;51.468;6.762;2024-01-10T12:58:31;-4.90;62.20
20492;DHT22;10404;51.468;6.762;2024-01-10T13:00:57;-4.80;61.80
20492;DHT22;10404;51.468;6.762;2024-01-10T13:03:24;-4.80;62.10
20492;DHT22;10404;51.468;6.762;2024-01-10T13:05:52;-4.60;61.80
20492;DHT22;10404;51.468;6.762;2024-01-10T13:08:18;-4.60;62.00
20492;DHT22;10404;51.468;6.762;2024-01-10T13:10:45;-4.60;61.60
20492;DHT22;10404;51.468;6.762;2024-01-10T13:13:11;-4.50;61.50
20492;DHT22;10404;51.468;6.762;2024-01-10T13:15:38;-4.40;61.00
20492;DHT22;10404;51.468;6.762;2024-01-10T13:18:03;-4.30;61.20
20492;DHT22;10404;51.468;6.762;2024-01-10T13:20:29;-4.20;61.20
20492;DHT22;10404;51.468;6.762;2024-01-10T13:22:55;-4.20;61.00
20492;DHT22;10404;51.468;6.762;2024-01-10T13:25:20;-4.10;61.10
20492;DHT22;10404;51.468;6.762;2024-01-10T13:27:50;-4.10;60.90
20492;DHT22;10404;51.468;6.762;2024-01-10T13:30:16;-4.00;60.50
20492;DHT22;10404;51.468;6.762;2024-01-10T13:32:43;-3.90;60.50
20492;DHT22;10404;51.468;6.762;2024-01-10T13:35:08;-3.90;60.60
20492;DHT22;10404;51.468;6.762;2024-01-10T13:37:34;-3.80;60.40
20492;DHT22;10404;51.468;6.762;2024-01-10T13:40:00;-3.80;60.60
20492;DHT22;10404;51.468;6.762;2024-01-10T13:42:25;-3.70;61.10
20492;DHT22;10404;51.468;6.762;2024-01-10T13:44:51;-3.60;60.30
20492;DHT22;10404;51.468;6.762;2024-01-10T13:47:19;-3.60;60.20
20492;DHT22;10404;51.468;6.762;2024-01-10T13:49:47;-3.50;60.00
20492;DHT22;10404;51.468;6.762;2024-01-10T13:52:13;-3.40;60.30
20492;DHT22;10404;51.468;6.762;2024-01-10T13:54:38;-3.40;60.50
20492;DHT22;10404;51.468;6.762;2024-01-10T13:57:04;-3.30;60.20
20492;DHT22;10404;51.468;6.762;2024-01-10T13:59:30;-3.30;60.70
20492;DHT22;10404;51.468;6.762;2024-01-10T14:01:55;-3.20;60.30
20492;DHT22;10404;51.468;6.762;2024-01-10T14:04:21;-3.20;60.10
20492;DHT22;10404;51.468;6.762;2024-01-10T14:06:48;-3.20;60.10
20492;DHT22;10404;51.468;6.762;2024-01-10T14:09:14;-3.10;60.40
20492;DHT22;10404;51.468;6.762;2024-01-10T14:11:39;-3.10;60.70
20492;DHT22;10404;51.468;6.762;2024-01-10T14:14:05;-3.10;59.50
20492;DHT22;10404;51.468;6.762;2024-01-10T14:16:31;-3.10;59.30
20492;DHT22;10404;51.468;6.762;2024-01-10T14:18:56;-3.00;59.90
20492;DHT22;10404;51.468;6.762;2024-01-10T14:21:22;-3.00;59.30
20492;DHT22;10404;51.468;6.762;2024-01-10T14:23:48;-3.00;58.90
20492;DHT22;10404;51.468;6.762;2024-01-10T14:26:14;-3.00;59.20
20492;DHT22;10404;51.468;6.762;2024-01-10T14:28:40;-3.00;59.00
20492;DHT22;10404;51.468;6.762;2024-01-10T14:31:06;-3.00;58.70
20492;DHT22;10404;51.468;6.762;2024-01-10T14:33:32;-3.00;58.80
20492;DHT22;10404;51.468;6.762;2024-01-10T14:35:58;-2.90;58.90
20492;DHT22;10404;51.468;6.762;2024-01-10T14:38:24;-2.90;58.90
20492;DHT22;10404;51.468;6.762;2024-01-10T14:40:50;-2.90;58.80
20492;DHT22;10404;51.468;6.762;2024-01-10T14:43:17;-2.90;58.90
20492;DHT22;10404;51.468;6.762;2024-01-10T14:45:43;-3.00;58.90
20492;DHT22;10404;51.468;6.762;2024-01-10T14:48:09;-2.90;59.00
20492;DHT22;10404;51.468;6.762;2024-01-10T14:50:35;-2.90;58.90
20492;DHT22;10404;51.468;6.762;2024-01-10T14:53:01;-2.90;58.80
20492;DHT22;10404;51.468;6.762;2024-01-10T14:55:27;-2.90;58.90
20492;DHT22;10404;51.468;6.762;2024-01-10T14:57:54;-2.90;59.10
20492;DHT22;10404;51.468;6.762;2024-01-10T15:00:19;-2.90;58.60
20492;DHT22;10404;51.468;6.762;2024-01-10T15:02:45;-2.90;58.90
20492;DHT22;10404;51.468;6.762;2024-01-10T15:05:14;-2.90;59.00
20492;DHT22;10404;51.468;6.762;2024-01-10T15:07:39;-2.90;59.00
20492;DHT22;10404;51.468;6.762;2024-01-10T15:10:05;-2.90;59.00
20492;DHT22;10404;51.468;6.762;2024-01-10T15:12:32;-2.90;59.00
20492;DHT22;10404;51.468;6.762;2024-01-10T15:14:58;-2.90;59.10
20492;DHT22;10404;51.468;6.762;2024-01-10T15:17:26;-2.90;59.00
20492;DHT22;10404;51.468;6.762;2024-01-10T15:19:52;-2.90;58.90
20492;DHT22;10404;51.468;6.762;2024-01-10T15:22:17;-2.90;59.00
20492;DHT22;10404;51.468;6.762;2024-01-10T15:24:43;-2.90;59.10
20492;DHT22;10404;51.468;6.762;2024-01-10T15:27:09;-2.90;59.30
20492;DHT22;10404;51.468;6.762;2024-01-10T15:29:38;-2.90;59.30
20492;DHT22;10404;51.468;6.762;2024-01-10T15:32:05;-2.90;59.60
20492;DHT22;10404;51.468;6.762;2024-01-10T15:34:31;-2.90;59.80
20492;DHT22;10404;51.468;6.762;2024-01-10T15:36:56;-2.90;59.80
20492;DHT22;10404;51.468;6.762;2024-01-10T15:39:22;-3.00;59.70